createdAt,value
2022-09-09T00:00:50.547Z,100784.36
2022-09-09T00:02:00.228Z,100785.27
2022-09-09T00:03:07.386Z,100783.44
2022-09-09T00:04:17.446Z,100776.55
2022-09-09T00:05:21.289Z,100784.48
2022-09-09T00:06:33.744Z,100775.23
2022-09-09T00:07:37.585Z,100780.52
2022-09-09T00:08:41.352Z,100775.35
2022-09-09T00:09:45.070Z,100774.00
2022-09-09T00:10:48.766Z,100772.30
2022-09-09T00:11:55.052Z,100774.00
2022-09-09T00:13:02.020Z,100772.05
2022-09-09T00:14:05.897Z,100767.73
2022-09-09T00:15:12.708Z,100766.76
2022-09-09T00:16:19.502Z,100769.22
2022-09-09T00:17:23.351Z,100777.70
2022-09-09T00:18:27.283Z,100772.23
2022-09-09T00:19:40.377Z,100772.36
2022-09-09T00:20:47.301Z,100779.28
2022-09-09T00:22:03.399Z,100781.14
2022-09-09T00:23:24.080Z,100772.42
2022-09-09T00:24:37.111Z,100772.36
2022-09-09T00:25:57.695Z,100770.88
2022-09-09T00:27:07.754Z,100776.58
2022-09-09T00:28:19.654Z,100780.05
2022-09-09T00:29:23.456Z,100771.16
2022-09-09T00:30:27.160Z,100774.75
2022-09-09T00:31:30.418Z,100778.12
2022-09-09T00:32:33.988Z,100777.58
2022-09-09T00:33:36.751Z,100775.60
2022-09-09T00:34:40.414Z,100779.92
2022-09-09T00:35:44.102Z,100770.31
2022-09-09T00:36:47.946Z,100773.94
2022-09-09T00:37:51.596Z,100775.06
2022-09-09T00:38:55.378Z,100776.09
2022-09-09T00:39:59.295Z,100778.73
2022-09-09T00:41:06.223Z,100776.50
2022-09-09T00:42:19.204Z,100774.52
2022-09-09T00:43:29.101Z,100779.93
2022-09-09T00:44:32.880Z,100779.26
2022-09-09T00:45:36.655Z,100788.95
2022-09-09T00:46:43.546Z,100780.05
2022-09-09T00:47:47.195Z,100783.55
2022-09-09T00:48:53.645Z,100786.42
2022-09-09T00:50:03.591Z,100783.84
2022-09-09T00:51:13.644Z,100791.05
2022-09-09T00:52:17.319Z,100797.06
2022-09-09T00:53:30.194Z,100791.16
2022-09-09T00:54:37.187Z,100790.78
2022-09-09T00:55:44.125Z,100785.68
2022-09-09T00:56:59.982Z,100787.35
2022-09-09T00:58:02.070Z,100787.34
2022-09-09T00:59:08.622Z,100784.75
2022-09-09T01:00:21.668Z,100788.98
2022-09-09T01:01:23.736Z,100788.93
2022-09-09T01:02:36.770Z,100795.39
2022-09-09T01:03:40.469Z,100788.49
2022-09-09T01:04:42.274Z,100793.55
2022-09-09T01:05:51.975Z,100800.56
2022-09-09T01:06:55.732Z,100796.89
2022-09-09T01:07:58.532Z,100804.23
2022-09-09T01:09:19.375Z,100801.80
2022-09-09T01:10:40.012Z,100798.16
2022-09-09T01:12:00.345Z,100799.59
2022-09-09T01:13:04.374Z,100805.67
2022-09-09T01:14:26.740Z,100802.30
2022-09-09T01:15:30.445Z,100810.10
2022-09-09T01:16:32.690Z,100804.23
2022-09-09T01:17:36.551Z,100807.31
2022-09-09T01:18:44.138Z,100808.13
2022-09-09T01:19:47.826Z,100803.82
2022-09-09T01:20:57.704Z,100806.52
2022-09-09T01:22:04.470Z,100803.64
2022-09-09T01:23:25.258Z,100809.78
2022-09-09T01:24:31.870Z,100803.99
2022-09-09T01:25:52.292Z,100815.39
2022-09-09T01:26:59.464Z,100808.25
2022-09-09T01:28:03.301Z,100812.92
2022-09-09T01:29:16.066Z,100811.69
2022-09-09T01:30:18.516Z,100813.42
2022-09-09T01:31:22.275Z,100821.11
2022-09-09T01:32:38.091Z,100810.89
2022-09-09T01:33:40.228Z,100810.28
2022-09-09T01:34:42.106Z,100813.66
2022-09-09T01:35:55.295Z,100807.70
2022-09-09T01:37:01.750Z,100798.36
2022-09-09T01:38:04.026Z,100805.84
2022-09-09T01:39:06.067Z,100808.89
2022-09-09T01:40:08.908Z,100800.91
2022-09-09T01:41:11.159Z,100807.63
2022-09-09T01:42:15.100Z,100808.04
2022-09-09T01:43:17.015Z,100799.55
2022-09-09T01:44:19.511Z,100800.29
2022-09-09T01:45:22.062Z,100802.87
2022-09-09T01:46:24.492Z,100800.11
2022-09-09T01:47:26.429Z,100800.91
2022-09-09T01:48:29.188Z,100799.49
2022-09-09T01:49:31.534Z,100796.05
2022-09-09T01:50:33.564Z,100792.42
2022-09-09T01:51:37.027Z,100797.53
2022-09-09T01:52:38.959Z,100798.50
2022-09-09T01:53:42.217Z,100792.53
2022-09-09T01:54:44.254Z,100787.99
2022-09-09T01:55:48.031Z,100792.73
2022-09-09T01:56:54.994Z,100786.77
2022-09-09T01:57:58.782Z,100791.38
2022-09-09T01:59:08.667Z,100788.45
2022-09-09T02:00:12.198Z,100790.86
2022-09-09T02:01:34.561Z,100793.11
2022-09-09T02:02:38.427Z,100795.48
2022-09-09T02:03:42.085Z,100791.48
2022-09-09T02:04:54.856Z,100790.38
2022-09-09T02:05:58.684Z,100791.31
2022-09-09T02:07:00.969Z,100788.38
2022-09-09T02:08:07.932Z,100787.97
2022-09-09T02:09:11.717Z,100794.27
2022-09-09T02:10:15.955Z,100789.09
2022-09-09T02:11:22.199Z,100796.69
2022-09-09T02:12:25.671Z,100794.78
2022-09-09T02:13:29.459Z,100787.64
2022-09-09T02:14:33.241Z,100795.51
2022-09-09T02:15:36.921Z,100790.23
2022-09-09T02:16:47.015Z,100794.62
2022-09-09T02:17:50.993Z,100796.58
2022-09-09T02:18:57.597Z,100790.55
2022-09-09T02:20:07.421Z,100799.37
2022-09-09T02:21:11.224Z,100804.55
2022-09-09T02:22:13.790Z,100800.02
2022-09-09T02:23:16.249Z,100798.14
2022-09-09T02:24:18.322Z,100798.20
2022-09-09T02:25:22.039Z,100799.54
2022-09-09T02:26:24.264Z,100798.69
2022-09-09T02:27:26.390Z,100797.67
2022-09-09T02:28:30.227Z,100796.95
2022-09-09T02:29:34.059Z,100799.95
2022-09-09T02:30:38.120Z,100803.48
2022-09-09T02:31:41.661Z,100798.74
2022-09-09T02:32:45.245Z,100803.38
2022-09-09T02:33:48.960Z,100797.15
2022-09-09T02:34:52.640Z,100801.59
2022-09-09T02:35:55.712Z,100798.00
2022-09-09T02:36:58.089Z,100810.04
2022-09-09T02:38:01.920Z,100806.72
2022-09-09T02:39:05.609Z,100806.50
2022-09-09T02:40:09.041Z,100806.61
2022-09-09T02:41:10.895Z,100810.34
2022-09-09T02:42:12.923Z,100799.89
2022-09-09T02:43:15.938Z,100806.93
2022-09-09T02:44:19.058Z,100803.28
2022-09-09T02:45:22.878Z,100804.77
2022-09-09T02:46:27.117Z,100808.77
2022-09-09T02:47:36.294Z,100806.72
2022-09-09T02:48:56.934Z,100803.01
2022-09-09T02:50:09.649Z,100804.77
2022-09-09T02:51:25.735Z,100800.69
2022-09-09T02:52:29.442Z,100803.01
2022-09-09T02:53:36.047Z,100803.48
2022-09-09T02:54:41.995Z,100803.28
2022-09-09T02:55:46.076Z,100809.78
2022-09-09T02:56:49.811Z,100807.86
2022-09-09T02:57:52.980Z,100812.31
2022-09-09T02:58:55.134Z,100801.86
2022-09-09T02:59:59.050Z,100805.38
2022-09-09T03:01:01.134Z,100801.86
2022-09-09T03:02:03.353Z,100800.91
2022-09-09T03:03:05.819Z,100800.00
2022-09-09T03:04:07.968Z,100801.86
2022-09-09T03:05:10.005Z,100802.11
2022-09-09T03:06:11.958Z,100801.22
2022-09-09T03:07:14.032Z,100809.56
2022-09-09T03:08:16.309Z,100807.03
2022-09-09T03:09:18.085Z,100799.17
2022-09-09T03:10:20.267Z,100795.84
2022-09-09T03:11:22.374Z,100799.33
2022-09-09T03:12:24.283Z,100807.48
2022-09-09T03:13:26.214Z,100809.30
2022-09-09T03:14:28.294Z,100801.12
2022-09-09T03:15:30.747Z,100805.33
2022-09-09T03:16:32.714Z,100800.95
2022-09-09T03:17:34.490Z,100799.02
2022-09-09T03:18:36.513Z,100801.55
2022-09-09T03:19:38.727Z,100799.70
2022-09-09T03:20:40.690Z,100792.19
2022-09-09T03:21:42.766Z,100797.62
2022-09-09T03:22:44.770Z,100803.91
2022-09-09T03:23:46.812Z,100804.39
2022-09-09T03:24:48.714Z,100796.59
2022-09-09T03:25:50.654Z,100810.45
2022-09-09T03:26:52.682Z,100814.05
2022-09-09T03:27:55.066Z,100817.48
2022-09-09T03:28:56.891Z,100821.91
2022-09-09T03:29:59.290Z,100813.94
2022-09-09T03:31:01.823Z,100797.78
2022-09-09T03:32:03.847Z,100817.94
2022-09-09T03:33:05.789Z,100818.78
2022-09-09T03:34:07.785Z,100824.16
2022-09-09T03:35:09.592Z,100821.16
2022-09-09T03:36:11.645Z,100826.59
2022-09-09T03:37:13.525Z,100823.08
2022-09-09T03:38:15.339Z,100826.55
2022-09-09T03:39:17.158Z,100822.22
2022-09-09T03:40:19.241Z,100825.06
2022-09-09T03:41:22.398Z,100824.97
2022-09-09T03:42:24.331Z,100826.59
2022-09-09T03:43:26.826Z,100819.84
2022-09-09T03:44:28.803Z,100810.61
2022-09-09T03:45:30.879Z,100819.42
2022-09-09T03:46:32.662Z,100830.34
2022-09-09T03:47:34.606Z,100819.53
2022-09-09T03:48:36.553Z,100821.31
2022-09-09T03:49:38.506Z,100820.28
2022-09-09T03:50:42.279Z,100836.40
2022-09-09T03:51:44.156Z,100835.36
2022-09-09T03:52:46.165Z,100831.92
2022-09-09T03:53:47.964Z,100831.98
2022-09-09T03:54:49.728Z,100833.14
2022-09-09T03:55:53.260Z,100830.52
2022-09-09T03:56:55.197Z,100839.55
2022-09-09T03:57:57.122Z,100841.13
2022-09-09T03:58:59.100Z,100848.70
2022-09-09T04:00:03.102Z,100852.53
2022-09-09T04:01:09.755Z,100850.70
2022-09-09T04:02:12.553Z,100848.80
2022-09-09T04:03:14.640Z,100850.40
2022-09-09T04:04:16.552Z,100849.89
2022-09-09T04:05:18.588Z,100844.92
2022-09-09T04:06:20.978Z,100848.56
2022-09-09T04:07:22.813Z,100848.27
2022-09-09T04:08:25.149Z,100854.19
2022-09-09T04:09:26.977Z,100847.80
2022-09-09T04:10:29.002Z,100851.19
2022-09-09T04:11:30.878Z,100840.43
2022-09-09T04:12:32.756Z,100839.28
2022-09-09T04:13:35.455Z,100837.20
2022-09-09T04:14:37.277Z,100846.71
2022-09-09T04:15:39.108Z,100845.39
2022-09-09T04:16:41.137Z,100837.63
2022-09-09T04:17:43.019Z,100830.39
2022-09-09T04:18:44.952Z,100829.98
2022-09-09T04:19:46.823Z,100834.66
2022-09-09T04:20:49.060Z,100828.59
2022-09-09T04:21:51.194Z,100836.34
2022-09-09T04:22:53.342Z,100833.27
2022-09-09T04:23:55.363Z,100837.77
2022-09-09T04:24:57.243Z,100836.86
2022-09-09T04:26:00.084Z,100835.02
2022-09-09T04:27:02.463Z,100842.89
2022-09-09T04:28:04.309Z,100837.51
2022-09-09T04:29:06.169Z,100832.98
2022-09-09T04:30:09.004Z,100831.23
2022-09-09T04:31:12.872Z,100836.34
2022-09-09T04:32:14.752Z,100835.47
2022-09-09T04:33:16.746Z,100837.71
2022-09-09T04:34:18.763Z,100847.75
2022-09-09T04:35:20.696Z,100838.59
2022-09-09T04:36:22.820Z,100787.55
2022-09-09T04:37:24.706Z,100850.87
2022-09-09T04:38:26.589Z,100849.64
2022-09-09T04:39:28.457Z,100862.98
2022-09-09T04:40:31.381Z,100859.36
2022-09-09T04:41:33.506Z,100864.53
2022-09-09T04:42:36.453Z,100868.00
2022-09-09T04:43:39.307Z,100870.70
2022-09-09T04:44:41.286Z,100866.32
2022-09-09T04:45:43.758Z,100872.50
2022-09-09T04:46:45.764Z,100877.72
2022-09-09T04:47:48.015Z,100873.93
2022-09-09T04:48:50.241Z,100869.45
2022-09-09T04:49:52.266Z,100877.27
2022-09-09T04:50:58.356Z,100879.75
2022-09-09T04:52:00.346Z,100880.80
2022-09-09T04:53:03.446Z,100883.23
2022-09-09T04:54:05.388Z,100876.12
2022-09-09T04:55:08.036Z,100883.44
2022-09-09T04:56:11.958Z,100877.75
2022-09-09T04:57:18.464Z,100878.76
2022-09-09T04:58:17.784Z,100876.74
2022-09-09T04:59:19.674Z,100876.50
2022-09-09T05:00:21.579Z,100881.94
2022-09-09T05:01:23.887Z,100876.66
2022-09-09T05:02:30.955Z,100874.69
2022-09-09T05:03:30.190Z,100872.95
2022-09-09T05:04:32.123Z,100873.70
2022-09-09T05:05:34.013Z,100877.86
2022-09-09T05:06:35.916Z,100869.30
2022-09-09T05:07:37.751Z,100872.74
2022-09-09T05:08:40.551Z,100875.06
2022-09-09T05:09:42.483Z,100875.00
2022-09-09T05:10:44.511Z,100883.30
2022-09-09T05:11:46.280Z,100878.01
2022-09-09T05:12:50.074Z,100867.14
2022-09-09T05:13:52.614Z,100885.20
2022-09-09T05:14:54.434Z,100882.41
2022-09-09T05:15:56.422Z,100883.73
2022-09-09T05:16:58.501Z,100890.49
2022-09-09T05:18:00.997Z,100881.23
2022-09-09T05:19:02.905Z,100882.45
2022-09-09T05:20:09.538Z,100885.42
2022-09-09T05:21:09.203Z,100877.16
2022-09-09T05:22:11.539Z,100871.39
2022-09-09T05:23:13.429Z,100873.49
2022-09-09T05:24:15.355Z,100878.53
2022-09-09T05:25:18.145Z,100873.73
2022-09-09T05:26:21.617Z,100869.70
2022-09-09T05:27:23.518Z,100869.84
2022-09-09T05:28:25.932Z,100865.73
2022-09-09T05:29:27.916Z,100858.80
2022-09-09T05:30:29.848Z,100853.83
2022-09-09T05:31:32.398Z,100847.71
2022-09-09T05:32:34.328Z,100849.84
2022-09-09T05:33:36.401Z,100845.70
2022-09-09T05:34:38.383Z,100841.44
2022-09-09T05:35:40.158Z,100838.39
2022-09-09T05:36:42.138Z,100839.69
2022-09-09T05:37:44.071Z,100831.15
2022-09-09T05:38:46.535Z,100840.28
2022-09-09T05:39:48.628Z,100837.48
2022-09-09T05:40:50.375Z,100842.95
2022-09-09T05:41:52.309Z,100846.18
2022-09-09T05:42:54.243Z,100842.41
2022-09-09T05:43:56.051Z,100837.50
2022-09-09T05:44:58.053Z,100839.23
2022-09-09T05:46:01.846Z,100838.48
2022-09-09T05:47:04.116Z,100836.20
2022-09-09T05:48:06.164Z,100842.06
2022-09-09T05:49:08.410Z,100833.50
2022-09-09T05:50:10.261Z,100835.41
2022-09-09T05:51:13.602Z,100841.22
2022-09-09T05:52:15.809Z,100840.56
2022-09-09T05:53:17.709Z,100837.24
2022-09-09T05:54:19.659Z,100839.20
2022-09-09T05:55:21.733Z,100841.69
2022-09-09T05:56:24.952Z,100842.45
2022-09-09T05:57:27.139Z,100842.81
2022-09-09T05:58:29.287Z,100844.17
2022-09-09T05:59:31.242Z,100841.59
2022-09-09T06:00:33.360Z,100845.02
2022-09-09T06:01:36.557Z,100845.95
2022-09-09T06:02:38.587Z,100846.22
2022-09-09T06:03:41.167Z,100848.00
2022-09-09T06:04:43.068Z,100844.98
2022-09-09T06:05:44.977Z,100849.69
2022-09-09T06:06:47.046Z,100851.63
2022-09-09T06:07:50.831Z,100846.42
2022-09-09T06:08:53.604Z,100843.27
2022-09-09T06:09:55.742Z,100845.77
2022-09-09T06:11:05.904Z,100847.31
2022-09-09T06:12:07.934Z,100854.34
2022-09-09T06:13:10.316Z,100855.50
2022-09-09T06:14:12.298Z,100860.65
2022-09-09T06:15:14.331Z,100861.21
2022-09-09T06:16:17.296Z,100859.30
2022-09-09T06:17:19.265Z,100853.50
2022-09-09T06:18:21.248Z,100860.67
2022-09-09T06:19:23.222Z,100857.03
2022-09-09T06:20:25.162Z,100865.40
2022-09-09T06:21:28.547Z,100862.75
2022-09-09T06:22:30.608Z,100869.00
2022-09-09T06:23:32.871Z,100863.59
2022-09-09T06:24:34.876Z,100868.17
2022-09-09T06:25:36.755Z,100866.16
2022-09-09T06:26:39.441Z,100867.97
2022-09-09T06:27:41.495Z,100874.52
2022-09-09T06:28:44.290Z,100863.69
2022-09-09T06:29:46.324Z,100862.94
2022-09-09T06:30:48.256Z,100853.42
2022-09-09T06:31:50.104Z,100857.25
2022-09-09T06:32:52.079Z,100853.79
2022-09-09T06:33:54.507Z,100853.77
2022-09-09T06:34:56.336Z,100858.18
2022-09-09T06:35:58.393Z,100859.48
2022-09-09T06:37:00.549Z,100860.02
2022-09-09T06:38:02.435Z,100865.45
2022-09-09T06:39:05.077Z,100866.94
2022-09-09T06:40:07.612Z,100866.69
2022-09-09T06:41:10.890Z,100862.64
2022-09-09T06:42:12.770Z,100867.27
2022-09-09T06:43:14.699Z,100857.41
2022-09-09T06:44:16.725Z,100859.42
2022-09-09T06:45:18.860Z,100862.64
2022-09-09T06:46:23.097Z,100863.22
2022-09-09T06:47:25.043Z,100863.63
2022-09-09T06:48:27.834Z,100868.77
2022-09-09T06:49:29.866Z,100869.16
2022-09-09T06:50:31.787Z,100866.15
2022-09-09T06:51:38.509Z,100861.16
2022-09-09T06:52:40.470Z,100867.59
2022-09-09T06:53:43.493Z,100867.84
2022-09-09T06:54:45.579Z,100863.72
2022-09-09T06:55:47.351Z,100867.83
2022-09-09T06:56:49.233Z,100855.78
2022-09-09T06:57:51.124Z,100864.27
2022-09-09T06:58:53.600Z,100860.69
2022-09-09T06:59:55.691Z,100860.72
2022-09-09T07:01:02.813Z,100857.64
2022-09-09T07:02:04.947Z,100861.62
2022-09-09T07:03:06.975Z,100857.81
2022-09-09T07:04:09.003Z,100863.79
2022-09-09T07:05:10.865Z,100864.00
2022-09-09T07:06:14.607Z,100868.15
2022-09-09T07:07:16.743Z,100867.09
2022-09-09T07:08:18.617Z,100865.48
2022-09-09T07:09:20.958Z,100872.34
2022-09-09T07:10:23.223Z,100863.15
2022-09-09T07:11:26.255Z,100863.47
2022-09-09T07:12:28.055Z,100865.38
2022-09-09T07:13:30.038Z,100875.54
2022-09-09T07:14:32.091Z,100874.48
2022-09-09T07:15:33.920Z,100873.84
2022-09-09T07:16:36.081Z,100878.08
2022-09-09T07:17:38.307Z,100876.63
2022-09-09T07:18:40.888Z,100877.64
2022-09-09T07:19:42.764Z,100877.64
2022-09-09T07:20:46.638Z,100877.39
2022-09-09T07:21:48.575Z,100864.91
2022-09-09T07:22:50.711Z,100869.72
2022-09-09T07:23:52.834Z,100866.50
2022-09-09T07:24:54.942Z,100872.08
2022-09-09T07:25:57.729Z,100872.51
2022-09-09T07:26:59.556Z,100877.72
2022-09-09T07:28:02.000Z,100870.05
2022-09-09T07:29:03.951Z,100868.41
2022-09-09T07:30:06.470Z,100871.12
2022-09-09T07:31:10.357Z,100870.97
2022-09-09T07:32:12.447Z,100874.71
2022-09-09T07:33:14.262Z,100871.77
2022-09-09T07:34:16.092Z,100862.55
2022-09-09T07:35:18.098Z,100864.41
2022-09-09T07:36:21.960Z,100868.02
2022-09-09T07:37:24.097Z,100867.42
2022-09-09T07:38:26.015Z,100867.09
2022-09-09T07:39:27.859Z,100861.71
2022-09-09T07:40:29.873Z,100859.14
2022-09-09T07:41:33.703Z,100857.75
2022-09-09T07:42:35.638Z,100863.39
2022-09-09T07:43:38.642Z,100868.08
2022-09-09T07:44:40.573Z,100862.12
2022-09-09T07:45:42.445Z,100856.38
2022-09-09T07:46:44.819Z,100855.48
2022-09-09T07:47:46.818Z,100861.62
2022-09-09T07:48:49.938Z,100866.64
2022-09-09T07:49:51.975Z,100866.75
2022-09-09T07:50:55.666Z,100866.61
2022-09-09T07:51:57.753Z,100862.45
2022-09-09T07:52:59.697Z,100867.08
2022-09-09T07:54:03.437Z,100867.70
2022-09-09T07:55:06.081Z,100864.47
2022-09-09T07:56:09.547Z,100869.03
2022-09-09T07:57:11.423Z,100865.22
2022-09-09T07:58:13.402Z,100871.88
2022-09-09T07:59:15.898Z,100867.18
2022-09-09T08:00:18.500Z,100871.88
2022-09-09T08:01:23.021Z,100864.18
2022-09-09T08:02:25.075Z,100867.78
2022-09-09T08:03:26.985Z,100865.44
2022-09-09T08:04:28.803Z,100867.23
2022-09-09T08:05:30.772Z,100862.60
2022-09-09T08:06:37.160Z,100861.72
2022-09-09T08:07:39.451Z,100857.52
2022-09-09T08:08:41.224Z,100860.87
2022-09-09T08:09:42.990Z,100859.18
2022-09-09T08:10:44.872Z,100860.69
2022-09-09T08:11:46.907Z,100857.00
2022-09-09T08:13:07.944Z,100858.91
2022-09-09T08:13:54.789Z,100858.20
2022-09-09T08:14:56.417Z,100853.75
2022-09-09T08:16:15.345Z,100854.20
2022-09-09T08:17:17.640Z,100853.34
2022-09-09T08:18:19.602Z,100845.93
2022-09-09T08:19:21.485Z,100851.30
2022-09-09T08:20:23.692Z,100850.62
2022-09-09T08:21:29.910Z,100848.73
2022-09-09T08:22:31.948Z,100852.52
2022-09-09T08:23:33.968Z,100846.65
2022-09-09T08:24:35.834Z,100841.41
2022-09-09T08:25:37.583Z,100845.93
2022-09-09T08:26:43.670Z,100837.96
2022-09-09T08:27:45.551Z,100842.36
2022-09-09T08:28:47.552Z,100836.78
2022-09-09T08:29:49.464Z,100841.13
2022-09-09T08:30:51.375Z,100836.28
2022-09-09T08:31:55.097Z,100834.38
2022-09-09T08:32:57.082Z,100836.89
2022-09-09T08:33:59.871Z,100834.27
2022-09-09T08:35:01.954Z,100832.21
2022-09-09T08:36:04.219Z,100830.32
2022-09-09T08:37:06.250Z,100835.12
2022-09-09T08:38:10.947Z,100833.98
2022-09-09T08:39:12.930Z,100842.64
2022-09-09T08:40:17.288Z,100840.17
2022-09-09T08:41:27.348Z,100839.44
2022-09-09T08:43:51.202Z,100838.62
2022-09-09T08:45:04.083Z,100837.85
2022-09-09T08:46:10.993Z,100836.67
2022-09-09T08:47:17.804Z,100833.15
2022-09-09T08:48:30.571Z,100834.44
2022-09-09T08:49:49.640Z,100835.28
2022-09-09T08:50:52.518Z,100834.27
2022-09-09T08:51:56.304Z,100835.00
2022-09-09T08:53:00.132Z,100835.01
2022-09-09T08:54:03.711Z,100827.97
2022-09-09T08:55:19.526Z,100822.95
2022-09-09T08:56:23.430Z,100824.63
2022-09-09T08:57:27.146Z,100818.77
2022-09-09T08:58:30.497Z,100824.52
2022-09-09T08:59:32.987Z,100815.86
2022-09-09T09:00:42.826Z,100824.69
2022-09-09T09:01:57.266Z,100825.23
2022-09-09T09:03:07.395Z,100824.63
2022-09-09T09:04:19.990Z,100831.54
2022-09-09T09:05:29.961Z,100827.97
2022-09-09T09:06:33.790Z,100816.08
2022-09-09T09:07:54.169Z,100820.27
2022-09-09T09:09:10.333Z,100818.14
2022-09-09T09:10:37.497Z,100823.09
2022-09-09T09:11:18.513Z,100815.94
2022-09-09T09:12:22.235Z,100812.28
2022-09-09T09:13:43.037Z,100809.27
2022-09-09T09:14:45.148Z,100814.48
2022-09-09T09:15:49.108Z,100815.48
2022-09-09T09:16:53.078Z,100812.06
2022-09-09T09:17:55.062Z,100806.94
2022-09-09T09:18:57.185Z,100807.50
2022-09-09T09:19:59.681Z,100810.28
2022-09-09T09:21:12.822Z,100810.34
2022-09-09T09:22:16.598Z,100806.48
2022-09-09T09:23:23.052Z,100804.99
2022-09-09T09:24:26.690Z,100798.20
2022-09-09T09:25:30.439Z,100807.22
2022-09-09T09:26:33.928Z,100805.38
2022-09-09T09:27:46.699Z,100799.47
2022-09-09T09:28:48.563Z,100800.88
2022-09-09T09:30:18.093Z,100801.58
2022-09-09T09:31:02.128Z,100792.28
2022-09-09T09:32:04.585Z,100792.52
2022-09-09T09:33:08.424Z,100799.53
2022-09-09T09:34:10.251Z,100796.55
2022-09-09T09:35:12.947Z,100793.72
2022-09-09T09:36:15.818Z,100791.77
2022-09-09T09:37:19.530Z,100805.05
2022-09-09T09:40:32.669Z,100795.78
2022-09-09T09:41:42.273Z,100803.63
2022-09-09T09:42:51.636Z,100800.52
2022-09-09T09:43:54.355Z,100801.50
2022-09-09T09:44:56.224Z,100806.09
2022-09-09T09:46:16.650Z,100800.65
2022-09-09T09:47:07.062Z,100805.09
2022-09-09T09:48:14.033Z,100812.46
2022-09-09T09:49:14.512Z,100811.36
2022-09-09T09:50:17.986Z,100808.85
2022-09-09T09:51:21.914Z,100806.94
2022-09-09T09:52:25.851Z,100812.80
2022-09-09T09:53:29.767Z,100808.40
2022-09-09T09:54:33.563Z,100809.67
2022-09-09T09:55:36.218Z,100818.60
2022-09-09T09:56:38.239Z,100811.53
2022-09-09T09:57:40.333Z,100816.37
2022-09-09T09:58:47.310Z,100801.97
2022-09-09T09:59:49.422Z,100808.34
2022-09-09T10:00:53.076Z,100808.45
2022-09-09T10:01:55.729Z,100806.94
2022-09-09T10:02:59.723Z,100800.93
2022-09-09T10:04:18.880Z,100801.36
2022-09-09T10:05:27.090Z,100796.00
2022-09-09T10:06:30.620Z,100799.64
2022-09-09T10:07:32.555Z,100797.74
2022-09-09T10:08:36.507Z,100802.42
2022-09-09T10:09:38.718Z,100797.79
2022-09-09T10:10:54.891Z,100804.98
2022-09-09T10:11:58.533Z,100798.94
2022-09-09T10:13:02.578Z,100791.12
2022-09-09T10:14:06.255Z,100801.11
2022-09-09T10:15:26.864Z,100804.75
2022-09-09T10:16:48.868Z,100793.92
2022-09-09T10:18:07.887Z,100814.62
2022-09-09T10:19:11.656Z,100811.60
2022-09-09T10:20:21.723Z,100814.94
2022-09-09T10:21:34.688Z,100817.38
2022-09-09T10:22:38.583Z,100810.30
2022-09-09T10:23:54.446Z,100807.86
2022-09-09T10:25:07.465Z,100814.44
2022-09-09T10:27:31.390Z,100804.77
2022-09-09T10:28:50.594Z,100805.00
2022-09-09T10:30:11.057Z,100806.89
2022-09-09T10:31:18.221Z,100805.17
2022-09-09T10:32:38.887Z,100810.30
2022-09-09T10:33:51.850Z,100807.50
2022-09-09T10:34:58.931Z,100817.27
2022-09-09T10:36:06.451Z,100807.73
2022-09-09T10:37:16.251Z,100794.34
2022-09-09T10:38:22.808Z,100804.23
2022-09-09T10:39:32.886Z,100793.16
2022-09-09T10:40:36.946Z,100790.23
2022-09-09T10:41:53.082Z,100794.36
2022-09-09T10:43:00.908Z,100793.16
2022-09-09T10:44:08.405Z,100793.88
2022-09-09T10:45:17.957Z,100797.67
2022-09-09T10:46:22.193Z,100793.03
2022-09-09T10:47:27.813Z,100792.02
2022-09-09T10:48:34.445Z,100794.70
2022-09-09T10:49:41.257Z,100794.98
2022-09-09T10:51:03.840Z,100794.23
2022-09-09T10:51:56.935Z,100783.03
2022-09-09T10:53:00.613Z,100793.39
2022-09-09T10:54:19.846Z,100790.22
2022-09-09T10:55:27.956Z,100790.59
2022-09-09T10:56:27.265Z,100799.47
2022-09-09T10:57:34.249Z,100808.34
2022-09-09T10:58:38.094Z,100797.84
2022-09-09T10:59:42.042Z,100802.55
2022-09-09T11:00:48.561Z,100790.22
2022-09-09T11:02:01.478Z,100796.55
2022-09-09T11:03:04.376Z,100799.23
2022-09-09T11:04:08.215Z,100792.91
2022-09-09T11:05:12.407Z,100791.91
2022-09-09T11:06:16.279Z,100799.23
2022-09-09T11:07:35.288Z,100800.08
2022-09-09T11:08:38.897Z,100792.41
2022-09-09T11:09:45.515Z,100789.11
2022-09-09T11:11:01.874Z,100794.36
2022-09-09T11:12:03.917Z,100786.17
2022-09-09T11:13:07.724Z,100796.56
2022-09-09T11:14:29.626Z,100792.91
2022-09-09T11:15:34.463Z,100792.89
2022-09-09T11:16:38.408Z,100792.55
2022-09-09T11:17:45.150Z,100803.64
2022-09-09T11:18:47.187Z,100788.14
2022-09-09T11:19:49.281Z,100785.34
2022-09-09T11:20:53.306Z,100787.17
2022-09-09T11:21:56.780Z,100788.87
2022-09-09T11:23:00.656Z,100794.36
2022-09-09T11:24:04.408Z,100789.51
2022-09-09T11:25:08.213Z,100792.31
2022-09-09T11:26:11.946Z,100788.75
2022-09-09T11:27:18.707Z,100796.80
2022-09-09T11:28:22.771Z,100789.86
2022-09-09T11:29:32.517Z,100794.99
2022-09-09T11:30:57.219Z,100797.67
2022-09-09T11:32:03.267Z,100786.83
2022-09-09T11:33:23.699Z,100792.19
2022-09-09T11:34:27.432Z,100792.91
2022-09-09T11:35:46.267Z,100788.75
2022-09-09T11:36:49.946Z,100784.14
2022-09-09T11:37:56.955Z,100792.91
2022-09-09T11:39:03.715Z,100784.62
2022-09-09T11:40:10.276Z,100782.55
2022-09-09T11:41:15.285Z,100783.39
2022-09-09T11:42:18.914Z,100781.58
2022-09-09T11:43:25.825Z,100776.22
2022-09-09T11:44:29.753Z,100779.74
2022-09-09T11:45:33.741Z,100783.75
2022-09-09T11:46:37.555Z,100792.43
2022-09-09T11:47:39.766Z,100786.31
2022-09-09T11:48:43.071Z,100791.19
2022-09-09T11:49:45.215Z,100788.52
2022-09-09T11:50:48.900Z,100780.83
2022-09-09T11:51:50.717Z,100778.27
2022-09-09T11:52:54.592Z,100782.91
2022-09-09T11:53:57.602Z,100783.14
2022-09-09T11:55:01.270Z,100788.63
2022-09-09T11:56:07.785Z,100778.78
2022-09-09T11:57:28.468Z,100787.19
2022-09-09T11:58:32.366Z,100783.38
2022-09-09T11:59:34.225Z,100781.46
2022-09-09T12:00:37.855Z,100780.47
2022-09-09T12:01:41.682Z,100778.78
2022-09-09T12:02:45.544Z,100776.81
2022-09-09T12:03:49.534Z,100777.78
2022-09-09T12:05:05.290Z,100782.91
2022-09-09T12:06:14.841Z,100774.86
2022-09-09T12:07:34.142Z,100782.06
2022-09-09T12:08:36.602Z,100777.78
2022-09-09T12:09:40.465Z,100769.86
2022-09-09T12:10:44.401Z,100772.42
2022-09-09T12:11:46.181Z,100768.02
2022-09-09T12:12:48.149Z,100769.73
2022-09-09T12:13:58.093Z,100773.09
2022-09-09T12:15:04.652Z,100772.89
2022-09-09T12:16:08.339Z,100773.20
2022-09-09T12:17:18.376Z,100763.77
2022-09-09T12:18:24.364Z,100767.53
2022-09-09T12:19:27.172Z,100763.84
2022-09-09T12:20:34.185Z,100755.08
2022-09-09T12:21:37.913Z,100757.56
2022-09-09T12:22:51.116Z,100761.16